Aérodrome :
LOGIN :

S'inscrire | Disclaimer

   EN    FR    IT 

 










Légende :    VFR   VFR Marginal   IFR   IFR Intensif   IFR Très Intensif
Visi : 
Plafond : 
>= 8 km
>= 3000ft
5 à 8 km
1000 à 3000 ft
1500m à 5 km
500 à 1000 ft
800 à 1500m
200 à 500 ft
< 800m
< 200 ft
Symboles :   Orages  Brouillard  Fortes neiges  Fortes précipitations  Vent > 20 kt
SIGMETs :   Divers  Orages  Givrage  Turbulence  Onde Orograph.  Cendres Volcan.






- Altitude de l'aérodrome : 433 ft


LFOC - Chateaudun

DERNIER METAR :
  • 272030Z AUTO 25007KT CAVOK M00/M02 Q1017

METARs EXPIRÉS :
  • 272000Z AUTO 25007KT CAVOK 00/M02 Q1016
  • 271930Z AUTO 28005KT 9999 SCT040 04/M00 Q1015
  • 271900Z AUTO 29008KT 9999 BKN038 05/00 Q1015
  • 271830Z AUTO 29008KT 9999 SCT038 05/00 Q1014
  • 271800Z AUTO 30010KT CAVOK 06/M00 Q1012

TAF TAF LFOC
Valide du 27 à 15h jusqu'au 28 à 15h UTC


271400Z 2715/2815 30023G33KT 9999 BKN024
BECMG 2715/2717 31015G25KT
BECMG 2718/2720 24010KT



MET'MAP, la Météo Aéronautique d'un coup d'oeil ! - Copyright ORBIFLY Décembre 2007 - Disclaimer

ORBIFLY MET'MAP TEAM :

Programmation & Développement : Alexandra Zaïnal
Sur une idée originale de : Baudouin d'Aumeries
Assistance à la programmation : Marc-Olivier Méhu
Soutien technique & logistique : Manuel Goepfert

Contact : metmap@orbifly.com




SOURCES & CREDITS :

   NOAA